createdAt,value
2018-08-27T00:01:22.756Z,10.62
2018-08-27T00:03:51.506Z,10.60
2018-08-27T00:06:20.204Z,10.75
2018-08-27T00:08:48.865Z,10.89
2018-08-27T00:11:17.792Z,10.95
2018-08-27T00:13:46.438Z,10.99
2018-08-27T00:16:15.150Z,11.04
2018-08-27T00:18:43.848Z,11.09
2018-08-27T00:21:12.982Z,10.96
2018-08-27T00:23:41.747Z,10.94
2018-08-27T00:26:10.424Z,10.92
2018-08-27T00:28:39.318Z,10.87
2018-08-27T00:31:08.128Z,10.73
2018-08-27T00:33:36.711Z,10.66
2018-08-27T00:36:05.577Z,10.59
2018-08-27T00:38:34.347Z,10.48
2018-08-27T00:41:03.014Z,10.52
2018-08-27T00:43:31.879Z,10.53
2018-08-27T00:46:01.182Z,10.55
2018-08-27T00:48:29.724Z,10.55
2018-08-27T00:50:58.361Z,10.52
2018-08-27T00:53:26.953Z,10.51
2018-08-27T00:55:56.200Z,10.60
2018-08-27T00:58:25.431Z,10.65
2018-08-27T01:00:54.095Z,10.64
2018-08-27T01:03:23.111Z,10.67
2018-08-27T01:05:52.503Z,10.69
2018-08-27T01:08:21.268Z,10.68
2018-08-27T01:10:49.823Z,10.65
2018-08-27T01:13:18.502Z,10.63
2018-08-27T01:15:47.231Z,10.61
2018-08-27T01:18:15.904Z,10.60
2018-08-27T01:20:44.505Z,10.62
2018-08-27T01:23:13.108Z,10.65
2018-08-27T01:25:41.759Z,10.63
2018-08-27T01:28:10.477Z,10.61
2018-08-27T01:30:39.033Z,10.59
2018-08-27T01:33:07.634Z,10.61
2018-08-27T01:35:36.332Z,10.62
2018-08-27T01:38:05.552Z,10.56
2018-08-27T01:40:34.279Z,10.52
2018-08-27T01:43:03.977Z,10.47
2018-08-27T01:45:32.672Z,10.46
2018-08-27T01:48:01.348Z,10.46
2018-08-27T01:50:30.100Z,10.47
2018-08-27T01:52:59.121Z,10.44
2018-08-27T01:55:27.974Z,10.40
2018-08-27T01:57:56.955Z,10.35
2018-08-27T02:00:26.629Z,10.32
2018-08-27T02:02:55.308Z,10.29
2018-08-27T02:05:24.216Z,10.29
2018-08-27T02:07:52.860Z,10.26
2018-08-27T02:10:21.965Z,10.17
2018-08-27T02:12:51.037Z,10.19
2018-08-27T02:15:19.850Z,10.17
2018-08-27T02:17:48.620Z,10.13
2018-08-27T02:20:17.793Z,10.13
2018-08-27T02:22:47.016Z,10.14
2018-08-27T02:25:15.770Z,10.10
2018-08-27T02:27:44.323Z,10.09
2018-08-27T02:30:13.268Z,10.03
2018-08-27T02:32:41.907Z,9.94
2018-08-27T02:35:10.871Z,9.86
2018-08-27T02:37:39.563Z,9.90
2018-08-27T02:40:08.308Z,9.91
2018-08-27T02:42:37.637Z,9.91
2018-08-27T02:45:06.723Z,9.92
2018-08-27T02:47:35.404Z,9.92
2018-08-27T02:50:04.121Z,9.91
2018-08-27T02:52:32.860Z,9.88
2018-08-27T02:55:02.362Z,9.85
2018-08-27T02:57:31.200Z,9.84
2018-08-27T02:59:59.745Z,9.84
2018-08-27T03:02:28.420Z,9.85
2018-08-27T03:04:57.206Z,9.86
2018-08-27T03:07:25.884Z,9.86
2018-08-27T03:09:54.679Z,9.86
2018-08-27T03:12:23.383Z,9.86
2018-08-27T03:14:52.861Z,9.84
2018-08-27T03:17:21.594Z,9.84
2018-08-27T03:19:50.292Z,9.83
2018-08-27T03:22:19.171Z,9.80
2018-08-27T03:24:48.435Z,9.71
2018-08-27T03:27:17.122Z,9.65
2018-08-27T03:29:45.689Z,9.64
2018-08-27T03:32:15.261Z,9.63
2018-08-27T03:34:44.388Z,9.60
2018-08-27T03:37:14.143Z,9.63
2018-08-27T03:39:43.099Z,9.57
2018-08-27T03:42:11.884Z,9.54
2018-08-27T03:44:40.920Z,9.55
2018-08-27T03:47:09.883Z,9.47
2018-08-27T03:49:38.928Z,9.42
2018-08-27T03:52:07.511Z,9.44
2018-08-27T03:54:36.684Z,9.45
2018-08-27T03:57:05.435Z,9.42
2018-08-27T03:59:34.096Z,9.39
2018-08-27T04:02:04.002Z,9.27
2018-08-27T04:04:32.703Z,9.18
2018-08-27T04:07:01.239Z,9.09
2018-08-27T04:09:30.075Z,9.04
2018-08-27T04:11:58.773Z,8.98
2018-08-27T04:14:27.428Z,8.94
2018-08-27T04:16:56.004Z,8.94
2018-08-27T04:19:24.627Z,8.90
2018-08-27T04:21:54.103Z,8.97
2018-08-27T04:24:22.824Z,9.00
2018-08-27T04:26:52.251Z,8.90
2018-08-27T04:29:20.948Z,8.91
2018-08-27T04:31:50.650Z,8.95
2018-08-27T04:34:20.101Z,8.98
2018-08-27T04:36:48.677Z,9.07
2018-08-27T04:39:17.220Z,9.12
2018-08-27T04:41:46.064Z,9.17
2018-08-27T04:44:14.728Z,9.18
2018-08-27T04:46:43.412Z,9.22
2018-08-27T04:49:12.515Z,9.22
2018-08-27T04:51:41.159Z,9.21
2018-08-27T04:54:09.882Z,9.26
2018-08-27T04:56:39.091Z,9.32
2018-08-27T04:59:12.975Z,9.34
2018-08-27T05:01:44.756Z,9.30
2018-08-27T05:04:13.422Z,9.29
2018-08-27T05:06:42.544Z,9.33
2018-08-27T05:09:12.040Z,9.27
2018-08-27T05:11:41.156Z,9.30
2018-08-27T05:14:11.657Z,9.38
2018-08-27T05:16:41.172Z,9.39
2018-08-27T05:19:10.560Z,9.44
2018-08-27T05:21:40.171Z,9.51
2018-08-27T05:24:08.716Z,9.60
2018-08-27T05:26:38.116Z,9.71
2018-08-27T05:29:06.829Z,9.78
2018-08-27T05:31:35.559Z,9.83
2018-08-27T05:34:04.216Z,9.85
2018-08-27T05:36:32.809Z,9.92
2018-08-27T05:39:01.779Z,9.91
2018-08-27T05:41:31.428Z,9.89
2018-08-27T05:44:00.187Z,9.93
2018-08-27T05:46:29.049Z,10.03
2018-08-27T05:48:57.765Z,10.15
2018-08-27T05:51:26.420Z,10.26
2018-08-27T05:53:56.474Z,10.35
2018-08-27T05:56:25.333Z,10.39
2018-08-27T05:58:54.092Z,10.40
2018-08-27T06:01:23.297Z,10.42
2018-08-27T06:03:51.891Z,10.58
2018-08-27T06:06:20.505Z,10.72
2018-08-27T06:08:49.842Z,10.87
2018-08-27T06:11:18.617Z,11.04
2018-08-27T06:13:47.257Z,11.19
2018-08-27T06:16:16.275Z,11.36
2018-08-27T06:18:44.985Z,11.54
2018-08-27T06:21:13.711Z,11.72
2018-08-27T06:23:42.291Z,11.86
2018-08-27T06:26:11.064Z,12.01
2018-08-27T06:28:39.761Z,12.17
2018-08-27T06:31:08.456Z,12.29
2018-08-27T06:33:37.780Z,12.41
2018-08-27T06:36:06.421Z,12.47
2018-08-27T06:38:35.350Z,12.55
2018-08-27T06:41:03.979Z,12.66
2018-08-27T06:43:32.712Z,12.85
2018-08-27T06:46:01.441Z,12.94
2018-08-27T06:48:30.860Z,13.09
2018-08-27T06:50:59.495Z,13.22
2018-08-27T06:53:28.012Z,13.33
2018-08-27T06:55:56.756Z,13.43
2018-08-27T06:58:25.396Z,13.59
2018-08-27T07:00:54.095Z,13.73
2018-08-27T07:03:23.533Z,13.88
2018-08-27T07:05:52.271Z,13.97
2018-08-27T07:08:20.946Z,14.15
2018-08-27T07:10:49.688Z,14.26
2018-08-27T07:13:18.347Z,14.35
2018-08-27T07:15:46.995Z,14.50
2018-08-27T07:21:15.158Z,14.78
2018-08-27T07:23:43.715Z,14.94
2018-08-27T07:26:13.021Z,14.98
2018-08-27T07:28:41.902Z,15.09
2018-08-27T07:31:10.772Z,15.21
2018-08-27T07:33:39.484Z,15.37
2018-08-27T07:36:09.341Z,15.52
2018-08-27T07:38:38.080Z,15.63
2018-08-27T07:41:06.729Z,15.65
2018-08-27T07:43:35.621Z,15.81
2018-08-27T07:46:04.315Z,15.96
2018-08-27T07:48:33.013Z,16.16
2018-08-27T07:51:01.553Z,16.34
2018-08-27T07:53:30.791Z,16.36
2018-08-27T07:56:00.063Z,16.52
2018-08-27T07:58:29.566Z,16.69
2018-08-27T08:00:58.879Z,16.72
2018-08-27T08:03:27.570Z,16.88
2018-08-27T08:05:56.219Z,16.97
2018-08-27T08:08:25.115Z,17.10
2018-08-27T08:10:53.963Z,17.23
2018-08-27T08:13:22.685Z,17.33
2018-08-27T08:15:52.060Z,17.40
2018-08-27T08:18:21.334Z,17.56
2018-08-27T08:20:50.325Z,17.72
2018-08-27T08:23:19.147Z,17.81
2018-08-27T08:25:48.144Z,17.88
2018-08-27T08:28:16.860Z,17.81
2018-08-27T08:30:45.548Z,17.93
2018-08-27T08:33:14.425Z,17.94
2018-08-27T08:35:43.126Z,18.13
2018-08-27T08:38:11.807Z,18.14
2018-08-27T08:40:40.608Z,18.17
2018-08-27T08:43:09.976Z,18.15
2018-08-27T08:45:39.109Z,18.31
2018-08-27T08:48:07.983Z,18.31
2018-08-27T08:50:36.771Z,18.36
2018-08-27T08:53:05.792Z,18.52
2018-08-27T08:55:34.414Z,18.66
2018-08-27T08:58:03.161Z,18.61
2018-08-27T09:00:31.711Z,18.67
2018-08-27T09:03:00.312Z,18.90
2018-08-27T09:05:28.844Z,19.07
2018-08-27T09:07:57.433Z,19.28
2018-08-27T09:10:25.978Z,19.31
2018-08-27T09:12:54.536Z,19.28
2018-08-27T09:15:23.080Z,19.46
2018-08-27T09:17:51.629Z,19.65
2018-08-27T09:20:20.267Z,19.88
2018-08-27T09:22:48.811Z,20.09
2018-08-27T09:25:18.201Z,20.26
2018-08-27T09:27:46.768Z,20.46
2018-08-27T09:30:15.329Z,20.63
2018-08-27T09:32:43.903Z,20.67
2018-08-27T09:35:12.468Z,20.87
2018-08-27T09:37:41.041Z,20.70
2018-08-27T09:40:09.692Z,20.70
2018-08-27T09:42:38.308Z,20.82
2018-08-27T09:45:06.899Z,20.81
2018-08-27T09:47:35.537Z,20.75
2018-08-27T09:50:04.084Z,20.87
2018-08-27T09:52:32.651Z,20.45
2018-08-27T09:55:02.080Z,20.27
2018-08-27T09:57:30.824Z,20.54
2018-08-27T10:00:00.224Z,20.36
2018-08-27T10:02:28.803Z,20.79
2018-08-27T10:04:57.350Z,20.74
2018-08-27T10:07:25.892Z,20.79
2018-08-27T10:09:54.444Z,20.77
2018-08-27T10:12:23.018Z,20.73
2018-08-27T10:14:51.945Z,20.90
2018-08-27T10:17:21.023Z,21.09
2018-08-27T10:19:49.727Z,20.74
2018-08-27T10:22:18.478Z,21.02
2018-08-27T10:24:47.086Z,21.40
2018-08-27T10:27:15.747Z,21.24
2018-08-27T10:29:44.413Z,20.53
2018-08-27T10:32:12.988Z,21.10
2018-08-27T10:34:41.516Z,21.63
2018-08-27T10:37:10.195Z,21.85
2018-08-27T10:39:38.701Z,21.11
2018-08-27T10:42:07.709Z,21.28
2018-08-27T10:44:36.286Z,21.80
2018-08-27T10:47:04.852Z,22.03
2018-08-27T10:49:33.409Z,21.55
2018-08-27T10:52:03.593Z,21.34
2018-08-27T10:54:32.361Z,21.03
2018-08-27T10:57:01.192Z,21.36
2018-08-27T10:59:30.096Z,21.71
2018-08-27T11:01:59.120Z,22.02
2018-08-27T11:04:28.837Z,22.16
2018-08-27T11:06:57.564Z,22.03
2018-08-27T11:09:27.279Z,22.20
2018-08-27T11:11:55.829Z,22.25
2018-08-27T11:14:24.678Z,22.39
2018-08-27T11:16:53.321Z,22.56
2018-08-27T11:19:22.041Z,22.80
2018-08-27T11:21:51.340Z,22.97
2018-08-27T11:24:21.485Z,22.73
2018-08-27T11:26:50.372Z,22.97
2018-08-27T11:29:20.198Z,23.23
2018-08-27T11:31:49.349Z,23.44
2018-08-27T11:34:17.929Z,23.62
2018-08-27T11:36:46.495Z,23.51
2018-08-27T11:39:15.920Z,23.67
2018-08-27T11:41:44.987Z,23.78
2018-08-27T11:44:13.548Z,23.84
2018-08-27T11:46:42.304Z,24.05
2018-08-27T11:49:11.592Z,24.33
2018-08-27T11:51:40.164Z,24.01
2018-08-27T11:54:08.824Z,23.67
2018-08-27T11:56:37.424Z,23.65
2018-08-27T11:59:06.074Z,23.57
2018-08-27T12:01:34.673Z,23.64
2018-08-27T12:04:03.236Z,23.90
2018-08-27T12:06:32.548Z,23.88
2018-08-27T12:09:01.238Z,24.28
2018-08-27T12:11:29.923Z,24.26
2018-08-27T12:13:58.608Z,24.05
2018-08-27T12:16:27.172Z,24.18
2018-08-27T12:18:55.780Z,23.83
2018-08-27T12:21:24.856Z,23.68
2018-08-27T12:23:54.142Z,23.32
2018-08-27T12:26:22.731Z,23.30
2018-08-27T12:28:51.526Z,23.55
2018-08-27T12:31:20.370Z,23.65
2018-08-27T12:33:49.089Z,23.72
2018-08-27T12:36:17.823Z,23.95
2018-08-27T12:38:46.471Z,24.08
2018-08-27T12:41:15.342Z,24.08
2018-08-27T12:43:43.967Z,24.05
2018-08-27T12:46:13.152Z,24.17
2018-08-27T12:48:41.996Z,24.34
2018-08-27T12:51:10.807Z,24.54
2018-08-27T12:53:40.385Z,24.83
2018-08-27T12:56:09.695Z,24.88
2018-08-27T12:58:38.839Z,24.70
2018-08-27T13:01:07.664Z,24.47
2018-08-27T13:03:37.177Z,24.46
2018-08-27T13:06:06.145Z,24.57
2018-08-27T13:08:34.809Z,24.80
2018-08-27T13:11:04.114Z,25.10
2018-08-27T13:13:32.699Z,25.37
2018-08-27T13:16:02.238Z,25.58
2018-08-27T13:18:31.140Z,25.69
2018-08-27T13:21:00.994Z,25.67
2018-08-27T13:23:29.925Z,25.28
2018-08-27T13:25:58.860Z,25.31
2018-08-27T13:28:27.493Z,25.12
2018-08-27T13:30:56.200Z,25.33
2018-08-27T13:33:24.883Z,25.37
2018-08-27T13:35:53.464Z,25.45
2018-08-27T13:38:22.059Z,25.29
2018-08-27T13:40:50.653Z,25.08
2018-08-27T13:43:19.201Z,25.17
2018-08-27T13:45:47.789Z,25.35
2018-08-27T13:48:16.325Z,25.28
2018-08-27T13:50:44.857Z,25.31
2018-08-27T13:53:13.413Z,25.35
2018-08-27T13:55:41.991Z,25.23
2018-08-27T13:58:10.588Z,25.45
2018-08-27T14:00:39.124Z,25.41
2018-08-27T14:03:08.053Z,25.21
2018-08-27T14:05:36.617Z,25.34
2018-08-27T14:08:05.259Z,25.52
2018-08-27T14:10:33.835Z,25.38
2018-08-27T14:13:03.312Z,25.54
2018-08-27T14:15:31.990Z,25.62
2018-08-27T14:18:00.612Z,25.34
2018-08-27T14:20:29.254Z,25.01
2018-08-27T14:22:57.802Z,25.22
2018-08-27T14:25:26.402Z,25.38
2018-08-27T14:27:54.904Z,25.17
2018-08-27T14:30:23.584Z,24.93
2018-08-27T14:32:52.167Z,24.74
2018-08-27T14:35:20.710Z,24.83
2018-08-27T14:37:49.272Z,24.96
2018-08-27T14:40:17.818Z,25.17
2018-08-27T14:42:46.378Z,25.50
2018-08-27T14:45:14.959Z,25.73
2018-08-27T14:47:43.629Z,25.87
2018-08-27T14:50:12.262Z,25.85
2018-08-27T14:52:40.819Z,25.88
2018-08-27T14:55:09.483Z,26.04
2018-08-27T14:57:38.066Z,26.06
2018-08-27T15:00:07.471Z,25.83
2018-08-27T15:02:36.130Z,25.91
2018-08-27T15:05:04.756Z,25.91
2018-08-27T15:07:33.403Z,26.02
2018-08-27T15:10:02.029Z,26.03
2018-08-27T15:12:30.649Z,25.76
2018-08-27T15:14:59.208Z,25.94
2018-08-27T15:17:27.796Z,26.04
2018-08-27T15:19:56.419Z,25.89
2018-08-27T15:22:24.981Z,25.83
2018-08-27T15:24:53.540Z,25.45
2018-08-27T15:27:22.107Z,25.39
2018-08-27T15:29:50.645Z,25.41
2018-08-27T15:32:19.172Z,25.20
2018-08-27T15:34:48.600Z,25.02
2018-08-27T15:37:17.186Z,24.93
2018-08-27T15:39:45.724Z,24.83
2018-08-27T15:42:14.297Z,25.21
2018-08-27T15:44:42.935Z,25.38
2018-08-27T15:47:11.498Z,25.51
2018-08-27T15:49:40.088Z,25.43
2018-08-27T15:52:08.733Z,25.13
2018-08-27T15:54:37.332Z,25.07
2018-08-27T15:57:05.991Z,24.90
2018-08-27T15:59:34.525Z,24.77
2018-08-27T16:02:03.204Z,24.84
2018-08-27T16:04:31.820Z,24.86
2018-08-27T16:07:00.359Z,24.88
2018-08-27T16:09:28.964Z,25.01
2018-08-27T16:11:58.487Z,24.93
2018-08-27T16:14:27.083Z,24.84
2018-08-27T16:16:55.642Z,24.83
2018-08-27T16:22:26.453Z,24.63
2018-08-27T16:24:55.055Z,24.75
2018-08-27T16:27:23.662Z,24.80
2018-08-27T16:29:52.221Z,24.62
2018-08-27T16:32:20.835Z,24.92
2018-08-27T16:34:49.436Z,24.87
2018-08-27T16:37:18.055Z,24.78
2018-08-27T16:39:46.772Z,24.54
2018-08-27T16:42:15.377Z,24.24
2018-08-27T16:44:43.967Z,24.17
2018-08-27T16:47:12.551Z,24.32
2018-08-27T16:49:41.119Z,24.92
2018-08-27T16:52:09.705Z,24.78
2018-08-27T16:54:38.244Z,24.18
2018-08-27T16:57:06.880Z,23.75
2018-08-27T16:59:35.447Z,23.28
2018-08-27T17:02:04.103Z,22.72
2018-08-27T17:04:32.906Z,22.25
2018-08-27T17:07:01.736Z,21.83
2018-08-27T17:09:30.427Z,21.49
2018-08-27T17:11:59.116Z,21.09
2018-08-27T17:14:27.733Z,20.85
2018-08-27T17:16:56.877Z,20.71
2018-08-27T17:19:25.570Z,20.57
2018-08-27T17:21:54.054Z,20.39
2018-08-27T17:24:22.644Z,20.23
2018-08-27T17:26:51.188Z,20.02
2018-08-27T17:29:19.812Z,19.94
2018-08-27T17:31:48.403Z,19.85
2018-08-27T17:34:16.972Z,19.75
2018-08-27T17:36:46.332Z,19.63
2018-08-27T17:39:17.344Z,19.50
2018-08-27T17:41:45.972Z,19.42
2018-08-27T17:44:14.535Z,19.34
2018-08-27T17:46:43.096Z,19.19
2018-08-27T17:49:11.611Z,19.14
2018-08-27T17:51:40.228Z,19.06
2018-08-27T17:54:08.829Z,19.05
2018-08-27T17:56:37.410Z,18.98
2018-08-27T17:59:05.994Z,18.84
2018-08-27T18:01:34.536Z,18.73
2018-08-27T18:04:03.863Z,18.66
2018-08-27T18:06:32.470Z,18.48
2018-08-27T18:09:01.146Z,18.36
2018-08-27T18:11:29.824Z,18.33
2018-08-27T18:13:58.392Z,18.37
2018-08-27T18:16:33.756Z,18.41
2018-08-27T18:19:02.309Z,18.42
2018-08-27T18:21:30.861Z,18.36
2018-08-27T18:23:59.435Z,18.19
2018-08-27T18:26:28.014Z,18.20
2018-08-27T18:28:56.616Z,18.15
2018-08-27T18:31:25.149Z,18.15
2018-08-27T18:33:53.733Z,18.11
2018-08-27T18:36:22.280Z,18.00
2018-08-27T18:38:50.992Z,17.93
2018-08-27T18:41:19.563Z,17.96
2018-08-27T18:43:48.160Z,18.00
2018-08-27T18:46:16.935Z,17.97
2018-08-27T18:48:45.517Z,17.91
2018-08-27T18:51:14.337Z,17.86
2018-08-27T18:53:43.683Z,17.83
2018-08-27T18:56:12.438Z,17.82
2018-08-27T18:58:41.120Z,17.79
2018-08-27T19:01:10.483Z,17.80
2018-08-27T19:03:39.488Z,17.83
2018-08-27T19:06:08.131Z,17.87
2018-08-27T19:08:37.753Z,17.96
2018-08-27T19:11:06.355Z,18.00
2018-08-27T19:13:35.092Z,17.97
2018-08-27T19:16:03.720Z,17.97
2018-08-27T19:18:39.009Z,17.93
2018-08-27T19:21:07.895Z,17.97
2018-08-27T19:23:37.331Z,18.01
2018-08-27T19:26:06.197Z,17.98
2018-08-27T19:28:34.933Z,17.97
2018-08-27T19:31:04.094Z,17.93
2018-08-27T19:33:32.996Z,17.94
2018-08-27T19:36:02.441Z,17.85
2018-08-27T19:38:31.336Z,17.74
2018-08-27T19:41:00.285Z,17.68
2018-08-27T19:43:29.099Z,17.58
2018-08-27T19:45:58.393Z,17.43
2018-08-27T19:48:27.852Z,17.41
2018-08-27T19:50:56.732Z,17.29
2018-08-27T19:53:26.149Z,17.25
2018-08-27T19:55:55.283Z,17.15
2018-08-27T19:58:25.476Z,17.10
2018-08-27T20:00:54.360Z,17.05
2018-08-27T20:03:23.188Z,16.97
2018-08-27T20:05:52.151Z,16.86
2018-08-27T20:08:21.058Z,16.77
2018-08-27T20:10:51.386Z,16.72
2018-08-27T20:13:20.326Z,16.65
2018-08-27T20:15:50.664Z,16.66
2018-08-27T20:18:20.973Z,16.59
2018-08-27T20:20:50.041Z,16.45
2018-08-27T20:23:19.702Z,16.44
2018-08-27T20:25:48.459Z,16.44
2018-08-27T20:28:17.714Z,16.50
2018-08-27T20:30:47.028Z,16.53
2018-08-27T20:33:15.840Z,16.59
2018-08-27T20:35:44.620Z,16.64
2018-08-27T20:38:16.999Z,16.73
2018-08-27T20:40:46.075Z,16.78
2018-08-27T20:43:15.058Z,16.77
2018-08-27T20:45:43.965Z,16.77
2018-08-27T20:48:13.727Z,16.75
2018-08-27T20:50:42.683Z,16.69
2018-08-27T20:53:12.296Z,16.70
2018-08-27T20:55:41.193Z,16.66
2018-08-27T20:58:10.276Z,16.69
2018-08-27T21:00:39.221Z,16.72
2018-08-27T21:03:08.039Z,16.75
2018-08-27T21:05:36.656Z,16.75
2018-08-27T21:08:05.824Z,16.75
2018-08-27T21:10:34.666Z,16.79
2018-08-27T21:13:04.089Z,16.82
2018-08-27T21:15:32.836Z,16.84
2018-08-27T21:18:03.204Z,16.81
2018-08-27T21:20:31.936Z,16.81
2018-08-27T21:23:02.011Z,16.82
2018-08-27T21:25:30.905Z,16.86
2018-08-27T21:28:00.819Z,16.87
2018-08-27T21:30:30.108Z,16.92
2018-08-27T21:32:59.213Z,16.88
2018-08-27T21:35:28.415Z,16.87
2018-08-27T21:37:57.146Z,16.90
2018-08-27T21:40:25.823Z,16.90
2018-08-27T21:42:55.134Z,16.92
2018-08-27T21:45:24.624Z,16.94
2018-08-27T21:47:53.244Z,16.90
2018-08-27T21:50:21.998Z,16.82
2018-08-27T21:52:50.926Z,16.76
2018-08-27T21:55:19.834Z,16.73
2018-08-27T21:57:48.444Z,16.71
2018-08-27T22:00:17.119Z,16.56
2018-08-27T22:02:51.859Z,16.47
2018-08-27T22:05:20.616Z,16.38
2018-08-27T22:07:49.245Z,16.40
2018-08-27T22:10:18.903Z,16.38
2018-08-27T22:12:47.463Z,16.38
2018-08-27T22:15:16.454Z,16.40
2018-08-27T22:20:47.788Z,16.43
2018-08-27T22:23:16.519Z,16.47
2018-08-27T22:25:45.161Z,16.48
2018-08-27T22:28:14.017Z,16.45
2018-08-27T22:30:42.727Z,16.37
2018-08-27T22:33:11.562Z,16.29
2018-08-27T22:35:40.319Z,16.26
2018-08-27T22:38:09.450Z,16.24
2018-08-27T22:40:38.703Z,16.16
2018-08-27T22:43:08.041Z,16.18
2018-08-27T22:45:36.912Z,16.21
2018-08-27T22:48:05.731Z,16.29
2018-08-27T22:50:34.687Z,16.35
2018-08-27T22:53:03.568Z,16.36
2018-08-27T22:55:32.926Z,16.34
2018-08-27T22:58:02.223Z,16.35
2018-08-27T23:00:31.015Z,16.38
2018-08-27T23:05:08.959Z,16.36
2018-08-27T23:07:37.667Z,16.20
2018-08-27T23:10:07.064Z,16.23
2018-08-27T23:12:35.800Z,16.30
2018-08-27T23:15:04.990Z,16.36
2018-08-27T23:17:34.258Z,16.41
2018-08-27T23:20:02.923Z,16.47
2018-08-27T23:22:31.804Z,16.45
2018-08-27T23:25:01.196Z,16.51
2018-08-27T23:27:30.615Z,16.47
2018-08-27T23:29:59.690Z,16.46
2018-08-27T23:32:29.635Z,16.41
2018-08-27T23:34:58.588Z,16.34
2018-08-27T23:37:27.360Z,16.36
2018-08-27T23:39:56.075Z,16.40
2018-08-27T23:42:25.873Z,16.41
2018-08-27T23:44:54.853Z,16.46
2018-08-27T23:47:25.352Z,16.47
2018-08-27T23:49:55.025Z,16.50
2018-08-27T23:52:24.387Z,16.51
2018-08-27T23:54:53.087Z,16.51
2018-08-27T23:57:22.320Z,16.55
2018-08-27T23:59:51.085Z,16.58
